createdAt,value
2018-09-28T04:00:52.861Z,87.68
2018-09-28T04:01:52.740Z,88.06
2018-09-28T04:03:45.436Z,89.01
2018-09-28T04:04:45.309Z,88.73
2018-09-28T04:06:37.996Z,88.34
2018-09-28T04:07:37.886Z,88.63
2018-09-28T04:09:30.587Z,88.63
2018-09-28T04:10:30.453Z,88.34
2018-09-28T04:12:23.170Z,89.11
2018-09-28T04:13:23.063Z,89.01
2018-09-28T04:15:16.411Z,89.30
2018-09-28T04:16:16.175Z,89.49
2018-09-28T04:18:08.879Z,88.73
2018-09-28T04:19:08.768Z,88.96
2018-09-28T04:21:01.431Z,89.44
2018-09-28T04:22:01.338Z,89.30
2018-09-28T04:23:54.167Z,90.01
2018-09-28T04:24:53.900Z,90.45
2018-09-28T04:26:46.568Z,90.59
2018-09-28T04:27:46.471Z,90.35
2018-09-28T04:29:39.155Z,91.25
2018-09-28T04:30:39.028Z,91.83
2018-09-28T04:32:31.701Z,92.74
2018-09-28T04:33:31.589Z,93.02
2018-09-28T04:35:24.281Z,94.07
2018-09-28T04:36:24.153Z,93.84
2018-09-28T04:38:17.364Z,94.70
2018-09-28T04:39:17.225Z,95.12
2018-09-28T04:41:09.901Z,95.70
2018-09-28T04:42:09.792Z,95.70
2018-09-28T04:44:02.492Z,96.46
2018-09-28T04:45:02.380Z,96.32
2018-09-28T04:46:55.025Z,96.89
2018-09-28T04:47:54.918Z,97.47
2018-09-28T04:49:48.092Z,97.75
2018-09-28T04:50:47.968Z,97.94
2018-09-28T04:52:41.137Z,98.13
2018-09-28T04:53:41.033Z,97.56
2018-09-28T04:55:33.734Z,98.33
2018-09-28T04:56:33.607Z,98.42
2018-09-28T04:58:26.297Z,98.61
2018-09-28T04:59:26.173Z,98.52
2018-09-28T05:01:18.849Z,98.61
2018-09-28T05:02:18.739Z,98.42
2018-09-28T05:04:11.427Z,99.19
2018-09-28T05:05:11.300Z,98.71
2018-09-28T05:07:03.970Z,98.52
2018-09-28T05:08:03.873Z,98.90
2018-09-28T05:09:56.550Z,98.99
2018-09-28T05:10:56.431Z,99.09
2018-09-28T05:12:49.098Z,99.57
2018-09-28T05:13:48.986Z,99.85
2018-09-28T05:15:41.678Z,99.99
2018-09-28T05:16:41.553Z,99.95
2018-09-28T05:18:34.893Z,99.99
2018-09-28T05:19:34.647Z,99.99
2018-09-28T05:21:27.319Z,99.99
2018-09-28T05:22:27.197Z,99.99
2018-09-28T05:24:19.879Z,99.99
2018-09-28T05:25:19.774Z,99.99
2018-09-28T05:27:12.450Z,99.99
2018-09-28T05:28:12.316Z,99.99
2018-09-28T05:30:04.996Z,99.99
2018-09-28T05:31:04.884Z,99.99
2018-09-28T05:32:57.827Z,99.99
2018-09-28T05:33:57.489Z,99.99
2018-09-28T05:35:50.173Z,99.99
2018-09-28T05:36:50.055Z,99.99
2018-09-28T05:38:42.722Z,99.99
2018-09-28T05:39:42.615Z,99.99
2018-09-28T05:41:35.309Z,99.99
2018-09-28T05:42:35.184Z,99.99
2018-09-28T05:44:27.871Z,99.99
2018-09-28T05:45:27.743Z,99.99
2018-09-28T05:47:20.915Z,99.99
2018-09-28T05:48:20.810Z,99.99
2018-09-28T05:50:13.495Z,99.99
2018-09-28T05:51:13.368Z,99.99
2018-09-28T05:53:06.042Z,99.99
2018-09-28T05:54:05.938Z,99.99
2018-09-28T05:55:58.628Z,99.99
2018-09-28T05:56:58.497Z,99.99
2018-09-28T05:58:51.178Z,99.99
2018-09-28T05:59:51.071Z,99.99
2018-09-28T06:01:43.760Z,99.99
2018-09-28T06:02:43.630Z,99.99
2018-09-28T06:04:36.330Z,99.99
2018-09-28T06:05:36.231Z,99.99
2018-09-28T06:07:28.870Z,99.99
2018-09-28T06:08:28.758Z,99.99
2018-09-28T06:10:21.452Z,99.99
2018-09-28T06:11:21.323Z,99.99
2018-09-28T06:13:13.990Z,99.99
2018-09-28T06:14:13.888Z,99.99
2018-09-28T06:16:06.578Z,99.99
2018-09-28T06:17:06.448Z,99.99
2018-09-28T06:18:59.164Z,99.66
2018-09-28T06:19:59.018Z,99.99
2018-09-28T06:21:51.701Z,99.95
2018-09-28T06:22:51.572Z,99.85
2018-09-28T06:24:44.761Z,99.76
2018-09-28T06:25:44.632Z,99.66
2018-09-28T06:27:37.306Z,99.57
2018-09-28T06:28:37.202Z,99.28
2018-09-28T06:30:29.888Z,99.99
2018-09-28T06:31:29.759Z,99.95
2018-09-28T06:33:22.425Z,99.99
2018-09-28T06:34:22.318Z,99.99
2018-09-28T06:36:15.020Z,99.99
2018-09-28T06:37:14.880Z,98.28
2018-09-28T06:39:08.046Z,98.66
2018-09-28T06:40:07.941Z,97.75
2018-09-28T06:42:00.659Z,97.61
2018-09-28T06:43:00.499Z,96.08
2018-09-28T06:44:53.176Z,95.07
2018-09-28T06:45:53.067Z,94.84
2018-09-28T06:47:45.750Z,94.31
2018-09-28T06:48:45.626Z,93.84
2018-09-28T06:50:38.305Z,93.16
2018-09-28T06:51:38.186Z,92.21
2018-09-28T06:53:30.859Z,91.64
2018-09-28T06:54:30.749Z,91.35
2018-09-28T06:56:23.442Z,91.16
2018-09-28T06:57:23.309Z,91.25
2018-09-28T06:59:16.491Z,90.78
2018-09-28T07:00:16.418Z,90.97
2018-09-28T07:02:09.557Z,90.97
2018-09-28T07:03:09.438Z,91.06
2018-09-28T07:05:02.599Z,91.20
2018-09-28T07:06:02.522Z,91.25
2018-09-28T07:07:55.675Z,88.53
2018-09-28T07:08:55.551Z,87.76
2018-09-28T07:10:48.733Z,87.00
2018-09-28T07:11:48.668Z,87.00
2018-09-28T07:13:41.769Z,86.33
2018-09-28T07:14:41.665Z,86.71
2018-09-28T07:16:34.370Z,86.23
2018-09-28T07:17:34.232Z,86.14
2018-09-28T07:19:26.924Z,86.14
2018-09-28T07:20:26.793Z,85.85
2018-09-28T07:22:19.483Z,85.94
2018-09-28T07:23:19.359Z,86.14
2018-09-28T07:25:12.095Z,85.28
2018-09-28T07:26:11.922Z,85.66
2018-09-28T07:28:04.608Z,84.36
2018-09-28T07:29:04.488Z,84.75
2018-09-28T07:30:57.172Z,84.36
2018-09-28T07:31:57.048Z,84.17
2018-09-28T07:33:50.212Z,84.52
2018-09-28T07:34:50.111Z,84.65
2018-09-28T07:36:42.961Z,84.23
2018-09-28T07:37:42.678Z,84.80
2018-09-28T07:39:35.352Z,84.84
2018-09-28T07:40:35.243Z,84.46
2018-09-28T07:42:27.931Z,84.08
2018-09-28T07:43:27.807Z,83.79
2018-09-28T07:45:20.482Z,83.79
2018-09-28T07:46:20.377Z,82.35
2018-09-28T07:48:13.590Z,82.01
2018-09-28T07:49:13.507Z,81.63
2018-09-28T07:51:06.627Z,81.15
2018-09-28T07:52:06.505Z,80.67
2018-09-28T07:53:59.173Z,80.77
2018-09-28T07:54:59.071Z,80.48
2018-09-28T07:56:51.759Z,81.25
2018-09-28T07:57:51.636Z,81.30
2018-09-28T07:59:44.333Z,80.82
2018-09-28T08:00:44.203Z,80.63
2018-09-28T08:02:36.917Z,80.06
2018-09-28T08:03:36.792Z,80.16
2018-09-28T08:05:29.479Z,79.39
2018-09-28T08:06:29.371Z,79.00
2018-09-28T08:08:23.055Z,78.24
2018-09-28T08:09:22.936Z,77.76
2018-09-28T08:11:15.623Z,78.14
2018-09-28T08:12:15.503Z,77.28
2018-09-28T08:14:08.170Z,77.38
2018-09-28T08:15:08.070Z,78.05
2018-09-28T08:17:00.757Z,77.38
2018-09-28T08:18:00.659Z,77.09
2018-09-28T08:19:53.309Z,76.27
2018-09-28T08:20:53.204Z,76.71
2018-09-28T08:22:45.897Z,75.79
2018-09-28T08:23:45.772Z,75.76
2018-09-28T08:25:38.447Z,76.52
2018-09-28T08:26:38.340Z,75.95
2018-09-28T08:28:31.057Z,76.14
2018-09-28T08:29:30.914Z,75.79
2018-09-28T08:31:23.584Z,75.22
2018-09-28T08:32:23.481Z,74.93
2018-09-28T08:34:16.164Z,74.84
2018-09-28T08:35:16.051Z,74.74
2018-09-28T08:37:08.734Z,75.83
2018-09-28T08:38:08.613Z,76.12
2018-09-28T08:40:01.287Z,78.22
2018-09-28T08:41:01.185Z,79.24
2018-09-28T08:42:53.876Z,78.99
2018-09-28T08:43:53.753Z,79.08
2018-09-28T08:45:46.429Z,78.80
2018-09-28T08:46:46.326Z,78.80
2018-09-28T08:48:39.169Z,77.75
2018-09-28T08:49:38.891Z,78.03
2018-09-28T08:51:31.573Z,78.07
2018-09-28T08:52:31.469Z,77.21
2018-09-28T08:54:24.155Z,75.58
2018-09-28T08:55:24.034Z,75.96
2018-09-28T08:57:16.734Z,75.14
2018-09-28T08:58:16.611Z,74.37
2018-09-28T09:00:09.290Z,73.22
2018-09-28T09:01:09.195Z,72.94
2018-09-28T09:03:01.879Z,73.38
2018-09-28T09:04:01.754Z,73.22
2018-09-28T09:05:54.431Z,73.90
2018-09-28T09:06:54.331Z,74.08
2018-09-28T09:08:47.027Z,73.99
2018-09-28T09:09:46.900Z,73.99
2018-09-28T09:11:39.583Z,74.27
2018-09-28T09:12:39.472Z,74.24
2018-09-28T09:14:32.662Z,73.09
2018-09-28T09:15:32.544Z,71.37
2018-09-28T09:17:25.229Z,73.15
2018-09-28T09:18:25.223Z,73.44
2018-09-28T09:20:18.279Z,74.49
2018-09-28T09:21:18.182Z,75.07
2018-09-28T09:23:10.868Z,75.16
2018-09-28T09:24:10.750Z,75.16
2018-09-28T09:26:03.419Z,74.77
2018-09-28T09:27:03.320Z,71.33
2018-09-28T09:28:56.004Z,69.23
2018-09-28T09:29:55.885Z,70.28
2018-09-28T09:31:48.559Z,70.05
2018-09-28T09:32:48.455Z,69.67
2018-09-28T09:34:41.163Z,68.90
2018-09-28T09:35:41.033Z,69.09
2018-09-28T09:37:33.727Z,68.71
2018-09-28T09:38:33.616Z,68.90
2018-09-28T09:40:26.283Z,68.84
2018-09-28T09:41:26.173Z,67.98
2018-09-28T09:43:18.870Z,68.36
2018-09-28T09:44:18.748Z,67.50
2018-09-28T09:46:11.420Z,67.31
2018-09-28T09:47:11.313Z,66.83
2018-09-28T09:49:04.013Z,66.86
2018-09-28T09:50:03.893Z,66.77
2018-09-28T09:51:56.566Z,66.48
2018-09-28T09:52:56.462Z,65.91
2018-09-28T09:54:49.153Z,66.25
2018-09-28T09:55:49.033Z,66.38
2018-09-28T09:57:41.746Z,66.58
2018-09-28T09:58:41.609Z,65.33
2018-09-28T10:00:34.279Z,65.81
2018-09-28T10:01:34.182Z,65.71
2018-09-28T10:03:26.871Z,65.33
2018-09-28T10:04:26.755Z,64.98
2018-09-28T10:06:19.928Z,63.64
2018-09-28T10:07:19.818Z,63.64
2018-09-28T10:09:12.515Z,63.00
2018-09-28T10:10:12.389Z,61.94
2018-09-28T10:12:05.069Z,61.15
2018-09-28T10:13:04.968Z,61.34
2018-09-28T10:14:57.678Z,61.82
2018-09-28T10:15:57.541Z,61.53
2018-09-28T10:17:50.251Z,61.15
2018-09-28T10:18:50.158Z,60.28
2018-09-28T10:20:42.839Z,59.04
2018-09-28T10:21:42.717Z,59.23
2018-09-28T10:23:35.434Z,58.65
2018-09-28T10:24:35.289Z,58.94
2018-09-28T10:26:29.532Z,57.70
2018-09-28T10:27:27.997Z,57.12
2018-09-28T10:29:20.571Z,57.12
2018-09-28T10:30:23.604Z,56.45
2018-09-28T10:32:13.128Z,56.07
2018-09-28T10:33:13.021Z,56.23
2018-09-28T10:35:06.693Z,57.60
2018-09-28T10:36:05.629Z,56.99
2018-09-28T10:37:58.348Z,55.85
2018-09-28T10:38:58.209Z,56.04
2018-09-28T10:40:53.064Z,56.81
2018-09-28T10:41:51.466Z,56.52
2018-09-28T10:43:44.155Z,55.85
2018-09-28T10:44:44.037Z,55.75
2018-09-28T10:46:36.729Z,56.32
2018-09-28T10:47:36.620Z,56.04
2018-09-28T10:49:29.303Z,54.82
2018-09-28T10:50:29.182Z,54.72
2018-09-28T10:52:22.027Z,54.46
2018-09-28T10:53:21.752Z,53.99
2018-09-28T10:55:14.505Z,53.89
2018-09-28T10:56:14.327Z,53.72
2018-09-28T10:58:07.029Z,52.83
2018-09-28T10:59:06.905Z,53.63
2018-09-28T11:00:59.599Z,53.44
2018-09-28T11:01:59.476Z,52.57
2018-09-28T11:03:52.169Z,51.83
2018-09-28T11:04:52.048Z,51.64
2018-09-28T11:06:44.732Z,50.80
2018-09-28T11:07:44.624Z,50.68
2018-09-28T11:09:37.345Z,51.86
2018-09-28T11:10:37.224Z,51.86
2018-09-28T11:12:29.883Z,52.14
2018-09-28T11:13:29.782Z,51.88
2018-09-28T11:15:22.489Z,51.37
2018-09-28T11:16:22.363Z,51.18
2018-09-28T11:18:15.048Z,51.83
2018-09-28T11:19:14.950Z,51.73
2018-09-28T11:21:07.661Z,51.73
2018-09-28T11:22:07.517Z,52.50
2018-09-28T11:24:00.215Z,52.40
2018-09-28T11:25:00.095Z,52.38
2018-09-28T11:26:52.780Z,53.05
2018-09-28T11:27:52.677Z,53.08
2018-09-28T11:29:45.376Z,53.91
2018-09-28T11:30:45.264Z,54.11
2018-09-28T11:32:37.935Z,55.07
2018-09-28T11:33:37.876Z,55.52
2018-09-28T11:35:30.528Z,56.19
2018-09-28T11:36:30.411Z,55.80
2018-09-28T11:38:23.091Z,56.29
2018-09-28T11:39:23.050Z,56.76
2018-09-28T11:41:15.690Z,57.12
2018-09-28T11:42:15.566Z,55.97
2018-09-28T11:44:08.276Z,55.21
2018-09-28T11:45:08.200Z,55.11
2018-09-28T11:47:00.831Z,54.15
2018-09-28T11:48:00.724Z,54.50
2018-09-28T11:49:53.418Z,54.79
2018-09-28T11:50:53.299Z,54.91
2018-09-28T11:52:45.982Z,53.96
2018-09-28T11:53:45.869Z,53.86
2018-09-28T11:55:38.576Z,53.77
2018-09-28T11:56:38.454Z,53.60
2018-09-28T11:58:31.139Z,53.03
2018-09-28T11:59:31.054Z,52.83
2018-09-28T12:01:23.794Z,52.64
2018-09-28T12:02:23.670Z,51.97
2018-09-28T12:04:16.351Z,51.10
2018-09-28T12:05:16.355Z,51.20
2018-09-28T12:07:09.007Z,51.08
2018-09-28T12:08:08.823Z,51.68
2018-09-28T12:10:01.554Z,52.16
2018-09-28T12:11:01.415Z,52.26
2018-09-28T12:12:54.094Z,52.26
2018-09-28T12:13:53.969Z,51.97
2018-09-28T12:15:46.710Z,51.97
2018-09-28T12:16:46.549Z,51.59
2018-09-28T12:18:39.274Z,51.90
2018-09-28T12:19:39.120Z,51.32
2018-09-28T12:21:31.855Z,51.68
2018-09-28T12:22:31.687Z,51.10
2018-09-28T12:24:24.441Z,51.40
2018-09-28T12:25:24.257Z,50.92
2018-09-28T12:27:16.964Z,50.75
2018-09-28T12:28:16.850Z,50.65
2018-09-28T12:30:09.653Z,50.84
2018-09-28T12:31:09.415Z,51.51
2018-09-28T12:33:02.086Z,49.98
2018-09-28T12:34:01.981Z,50.46
2018-09-28T12:35:54.683Z,50.27
2018-09-28T12:36:54.552Z,50.46
2018-09-28T12:38:47.237Z,51.14
2018-09-28T12:39:47.223Z,50.37
2018-09-28T12:41:39.827Z,50.94
2018-09-28T12:42:39.834Z,51.51
2018-09-28T12:44:32.453Z,50.65
2018-09-28T12:45:32.321Z,49.72
2018-09-28T12:47:24.975Z,49.62
2018-09-28T12:48:24.911Z,49.52
2018-09-28T12:50:17.598Z,47.72
2018-09-28T12:51:17.439Z,47.15
2018-09-28T12:53:10.104Z,47.72
2018-09-28T12:54:10.045Z,48.59
2018-09-28T12:56:03.191Z,50.39
2018-09-28T12:57:03.075Z,51.04
2018-09-28T12:58:55.759Z,52.09
2018-09-28T12:59:55.651Z,52.74
2018-09-28T13:01:48.356Z,53.89
2018-09-28T13:02:48.305Z,53.79
2018-09-28T13:04:40.909Z,53.72
2018-09-28T13:05:40.805Z,53.91
2018-09-28T13:07:33.586Z,54.11
2018-09-28T13:08:34.165Z,53.72
2018-09-28T13:10:26.141Z,54.39
2018-09-28T13:11:26.040Z,54.68
2018-09-28T13:13:18.741Z,54.01
2018-09-28T13:14:18.725Z,53.72
2018-09-28T13:16:11.315Z,53.24
2018-09-28T13:17:11.206Z,52.28
2018-09-28T13:19:03.875Z,51.90
2018-09-28T13:20:03.769Z,52.57
2018-09-28T13:21:56.686Z,51.42
2018-09-28T13:22:56.566Z,51.71
2018-09-28T13:24:49.405Z,50.96
2018-09-28T13:25:49.141Z,49.72
2018-09-28T13:27:41.834Z,48.21
2018-09-28T13:28:41.710Z,47.82
2018-09-28T13:30:34.410Z,48.88
2018-09-28T13:31:34.287Z,49.17
2018-09-28T13:33:26.983Z,49.79
2018-09-28T13:34:26.862Z,51.32
2018-09-28T13:36:19.597Z,52.83
2018-09-28T13:37:19.434Z,52.93
2018-09-28T13:39:12.200Z,53.12
2018-09-28T13:40:12.012Z,53.70
2018-09-28T13:42:04.702Z,54.44
2018-09-28T13:43:04.586Z,55.11
2018-09-28T13:44:57.309Z,55.68
2018-09-28T13:45:57.211Z,56.45
2018-09-28T13:47:49.866Z,56.35
2018-09-28T13:48:49.820Z,55.97
2018-09-28T13:50:42.480Z,55.18
2018-09-28T13:51:42.325Z,55.11
2018-09-28T13:53:35.022Z,56.13
2018-09-28T13:54:34.918Z,56.52
2018-09-28T13:56:27.588Z,57.09
2018-09-28T13:57:27.465Z,56.90
2018-09-28T13:59:20.143Z,57.38
2018-09-28T14:00:20.098Z,57.28
2018-09-28T14:02:12.733Z,56.23
2018-09-28T14:03:12.598Z,56.16
2018-09-28T14:05:05.283Z,55.11
2018-09-28T14:06:05.222Z,55.40
2018-09-28T14:07:57.872Z,54.44
2018-09-28T14:08:57.744Z,54.34
2018-09-28T14:10:50.481Z,54.44
2018-09-28T14:11:50.316Z,54.15
2018-09-28T14:13:43.003Z,54.56
2018-09-28T14:14:42.901Z,53.67
2018-09-28T14:16:35.637Z,54.08
2018-09-28T14:17:35.458Z,53.50
2018-09-28T14:19:28.136Z,53.41
2018-09-28T14:20:28.156Z,53.41
2018-09-28T14:22:21.220Z,52.16
2018-09-28T14:23:21.096Z,51.75
2018-09-28T14:25:13.776Z,51.56
2018-09-28T14:26:13.713Z,51.30
2018-09-28T14:28:06.443Z,48.43
2018-09-28T14:29:06.247Z,47.94
2018-09-28T14:30:58.910Z,46.41
2018-09-28T14:31:58.810Z,46.41
2018-09-28T14:33:51.813Z,46.12
2018-09-28T14:34:51.488Z,46.31
2018-09-28T14:36:44.133Z,46.60
2018-09-28T14:37:43.961Z,46.41
2018-09-28T14:39:36.622Z,46.67
2018-09-28T14:40:36.540Z,46.89
2018-09-28T14:42:29.270Z,47.37
2018-09-28T14:43:29.088Z,47.17
2018-09-28T14:45:21.773Z,46.86
2018-09-28T14:46:21.729Z,47.34
2018-09-28T14:48:14.387Z,47.66
2018-09-28T14:49:14.298Z,47.75
2018-09-28T14:51:06.912Z,46.98
2018-09-28T14:52:06.808Z,47.27
2018-09-28T14:53:59.544Z,47.63
2018-09-28T14:54:59.497Z,48.02
2018-09-28T14:56:52.069Z,49.05
2018-09-28T14:57:51.942Z,48.95
2018-09-28T14:59:44.621Z,49.81
2018-09-28T15:00:44.631Z,49.81
2018-09-28T15:02:37.226Z,50.22
2018-09-28T15:03:37.103Z,49.55
2018-09-28T15:05:29.766Z,50.79
2018-09-28T15:06:29.689Z,51.46
2018-09-28T15:08:22.450Z,54.05
2018-09-28T15:09:22.237Z,54.63
2018-09-28T15:11:14.901Z,55.11
2018-09-28T15:12:14.861Z,55.49
2018-09-28T15:14:07.498Z,55.49
2018-09-28T15:15:07.373Z,56.16
2018-09-28T15:17:01.068Z,56.04
2018-09-28T15:18:00.950Z,55.94
2018-09-28T15:19:53.646Z,56.13
2018-09-28T15:20:53.520Z,56.13
2018-09-28T15:22:46.207Z,55.91
2018-09-28T15:23:46.089Z,55.65
2018-09-28T15:25:38.763Z,55.46
2018-09-28T15:26:38.655Z,56.13
2018-09-28T15:28:31.344Z,56.97
2018-09-28T15:29:31.249Z,56.10
2018-09-28T15:31:23.902Z,56.87
2018-09-28T15:32:23.788Z,54.77
2018-09-28T15:34:16.477Z,54.96
2018-09-28T15:35:16.357Z,54.96
2018-09-28T15:37:09.036Z,55.82
2018-09-28T15:38:08.922Z,55.88
2018-09-28T15:40:01.610Z,56.08
2018-09-28T15:41:01.487Z,56.65
2018-09-28T15:42:54.181Z,56.94
2018-09-28T15:43:54.052Z,56.46
2018-09-28T15:45:46.727Z,57.04
2018-09-28T15:46:46.616Z,57.42
2018-09-28T15:48:39.318Z,57.61
2018-09-28T15:49:39.223Z,57.90
2018-09-28T15:51:31.860Z,57.80
2018-09-28T15:52:31.751Z,58.37
2018-09-28T15:54:24.434Z,57.80
2018-09-28T15:55:24.313Z,58.18
2018-09-28T15:57:16.983Z,58.47
2018-09-28T15:58:16.875Z,58.47
2018-09-28T16:00:09.591Z,58.56
2018-09-28T16:01:09.440Z,58.95
2018-09-28T16:03:02.141Z,58.95
2018-09-28T16:04:02.019Z,59.43
2018-09-28T16:05:54.850Z,59.43
2018-09-28T16:06:54.581Z,60.38
2018-09-28T16:08:47.268Z,60.38
2018-09-28T16:09:47.153Z,60.38
2018-09-28T16:11:39.814Z,61.15
2018-09-28T16:12:39.713Z,61.05
2018-09-28T16:14:32.396Z,61.15
2018-09-28T16:15:32.272Z,61.05
2018-09-28T16:17:24.945Z,61.82
2018-09-28T16:18:24.836Z,62.40
2018-09-28T16:20:17.526Z,62.97
2018-09-28T16:21:17.408Z,62.46
2018-09-28T16:23:10.099Z,62.74
2018-09-28T16:24:09.975Z,63.03
2018-09-28T16:26:02.652Z,62.55
2018-09-28T16:27:02.542Z,63.03
2018-09-28T16:28:55.233Z,63.32
2018-09-28T16:29:55.118Z,63.70
2018-09-28T16:31:47.780Z,63.80
2018-09-28T16:32:47.676Z,63.80
2018-09-28T16:34:40.364Z,63.70
2018-09-28T16:35:40.271Z,63.70
2018-09-28T16:37:32.908Z,63.51
2018-09-28T16:38:32.803Z,63.60
2018-09-28T16:40:25.489Z,63.39
2018-09-28T16:41:25.367Z,63.32
2018-09-28T16:43:18.047Z,63.48
2018-09-28T16:44:17.927Z,63.48
2018-09-28T16:46:10.602Z,63.67
2018-09-28T16:47:10.485Z,63.29
2018-09-28T16:49:03.176Z,63.86
2018-09-28T16:50:03.049Z,63.86
2018-09-28T16:51:55.721Z,63.96
2018-09-28T16:52:55.610Z,64.05
2018-09-28T16:54:48.449Z,64.53
2018-09-28T16:55:48.176Z,64.91
2018-09-28T16:57:40.894Z,64.91
2018-09-28T16:58:40.749Z,64.91
2018-09-28T17:00:33.423Z,65.11
2018-09-28T17:01:33.299Z,65.68
2018-09-28T17:03:25.994Z,65.64
2018-09-28T17:04:25.863Z,65.74
2018-09-28T17:06:18.535Z,66.22
2018-09-28T17:07:18.423Z,65.84
2018-09-28T17:09:11.220Z,66.16
2018-09-28T17:10:10.983Z,66.31
2018-09-28T17:12:03.654Z,66.41
2018-09-28T17:13:03.542Z,66.31
2018-09-28T17:14:56.228Z,66.70
2018-09-28T17:15:56.103Z,66.79
2018-09-28T17:17:48.768Z,66.50
2018-09-28T17:18:48.653Z,66.60
2018-09-28T17:20:41.350Z,67.46
2018-09-28T17:21:41.220Z,67.46
2018-09-28T17:23:33.904Z,67.36
2018-09-28T17:24:33.784Z,67.55
2018-09-28T17:26:26.468Z,68.10
2018-09-28T17:27:26.342Z,68.00
2018-09-28T17:29:19.028Z,67.71
2018-09-28T17:30:18.899Z,68.00
2018-09-28T17:32:11.570Z,68.10
2018-09-28T17:33:11.494Z,68.67
2018-09-28T17:35:04.209Z,69.15
2018-09-28T17:36:04.021Z,68.86
2018-09-28T17:37:56.690Z,69.15
2018-09-28T17:38:56.577Z,68.96
2018-09-28T17:40:49.420Z,69.43
2018-09-28T17:41:49.141Z,69.62
2018-09-28T17:43:41.819Z,69.43
2018-09-28T17:44:41.706Z,69.72
2018-09-28T17:46:34.398Z,69.72
2018-09-28T17:47:34.273Z,70.01
2018-09-28T17:49:26.951Z,69.97
2018-09-28T17:50:26.839Z,70.16
2018-09-28T17:52:19.500Z,70.01
2018-09-28T17:53:19.392Z,70.54
2018-09-28T17:55:12.088Z,70.83
2018-09-28T17:56:11.963Z,70.58
2018-09-28T17:58:04.649Z,71.02
2018-09-28T17:59:04.538Z,71.21
2018-09-28T18:00:57.222Z,71.50
2018-09-28T18:01:57.121Z,71.98
2018-09-28T18:03:49.767Z,71.98
2018-09-28T18:04:49.651Z,71.98
2018-09-28T18:06:42.435Z,72.45
2018-09-28T18:07:42.271Z,72.55
2018-09-28T18:09:34.907Z,72.17
2018-09-28T18:10:34.780Z,72.26
2018-09-28T18:12:27.537Z,72.55
2018-09-28T18:13:27.337Z,72.36
2018-09-28T18:15:20.034Z,72.74
2018-09-28T18:16:19.905Z,72.93
2018-09-28T18:18:12.574Z,73.22
2018-09-28T18:19:12.473Z,73.66
2018-09-28T18:21:05.166Z,73.56
2018-09-28T18:22:05.037Z,73.37
2018-09-28T18:23:57.701Z,73.94
2018-09-28T18:24:57.587Z,73.66
2018-09-28T18:26:50.270Z,74.23
2018-09-28T18:27:50.147Z,74.13
2018-09-28T18:29:42.830Z,74.32
2018-09-28T18:30:42.704Z,74.04
2018-09-28T18:32:35.412Z,74.52
2018-09-28T18:33:35.359Z,74.04
2018-09-28T18:35:27.997Z,74.42
2018-09-28T18:36:27.872Z,74.90
2018-09-28T18:38:20.537Z,74.61
2018-09-28T18:39:20.436Z,74.61
2018-09-28T18:41:13.137Z,75.18
2018-09-28T18:42:13.123Z,75.09
2018-09-28T18:44:06.172Z,75.76
2018-09-28T18:45:06.056Z,75.57
2018-09-28T18:46:58.744Z,75.28
2018-09-28T18:47:58.611Z,75.76
2018-09-28T18:49:51.328Z,75.76
2018-09-28T18:50:51.183Z,76.23
2018-09-28T18:52:44.000Z,76.23
2018-09-28T18:53:43.735Z,76.42
2018-09-28T18:55:36.416Z,76.23
2018-09-28T18:56:36.296Z,76.67
2018-09-28T18:58:28.957Z,76.67
2018-09-28T18:59:28.856Z,76.67
2018-09-28T19:01:21.530Z,76.77
2018-09-28T19:02:21.411Z,76.57
2018-09-28T19:04:14.087Z,76.39
2018-09-28T19:05:13.980Z,76.57
2018-09-28T19:07:06.660Z,76.57
2018-09-28T19:08:06.541Z,76.10
2018-09-28T19:09:59.207Z,76.48
2018-09-28T19:10:59.102Z,76.29
2018-09-28T19:12:51.853Z,77.06
2018-09-28T19:13:51.665Z,76.86
2018-09-28T19:15:44.349Z,76.86
2018-09-28T19:16:44.232Z,76.96
2018-09-28T19:18:36.902Z,76.86
2018-09-28T19:19:36.785Z,76.77
2018-09-28T19:21:29.534Z,77.15
2018-09-28T19:22:29.346Z,77.06
2018-09-28T19:24:22.014Z,77.06
2018-09-28T19:25:21.893Z,77.72
2018-09-28T19:27:14.586Z,77.72
2018-09-28T19:28:14.460Z,77.25
2018-09-28T19:30:07.123Z,77.25
2018-09-28T19:31:07.026Z,77.06
2018-09-28T19:32:59.699Z,77.15
2018-09-28T19:33:59.569Z,76.96
2018-09-28T19:35:52.271Z,76.86
2018-09-28T19:36:52.132Z,77.15
2018-09-28T19:38:44.800Z,77.15
2018-09-28T19:39:44.683Z,77.15
2018-09-28T19:41:37.371Z,77.62
2018-09-28T19:42:37.241Z,77.30
2018-09-28T19:44:29.902Z,77.78
2018-09-28T19:45:29.796Z,77.78
2018-09-28T19:47:22.484Z,78.16
2018-09-28T19:48:22.353Z,78.54
2018-09-28T19:50:15.030Z,78.73
2018-09-28T19:51:14.910Z,79.11
2018-09-28T19:53:07.589Z,79.40
2018-09-28T19:54:07.471Z,79.11
2018-09-28T19:56:00.159Z,79.11
2018-09-28T19:57:00.022Z,79.49
2018-09-28T19:58:52.700Z,79.68
2018-09-28T19:59:52.584Z,80.16
2018-09-28T20:01:45.273Z,80.35
2018-09-28T20:02:45.133Z,80.54
2018-09-28T20:04:37.878Z,81.88
2018-09-28T20:05:37.727Z,81.88
2018-09-28T20:07:30.368Z,81.26
2018-09-28T20:08:30.246Z,81.40
2018-09-28T20:10:22.906Z,81.97
2018-09-28T20:11:22.798Z,82.12
2018-09-28T20:13:15.478Z,82.21
2018-09-28T20:14:15.351Z,82.60
2018-09-28T20:16:08.319Z,82.50
2018-09-28T20:17:07.912Z,82.79
2018-09-28T20:19:00.609Z,82.79
2018-09-28T20:20:00.460Z,82.89
2018-09-28T20:21:53.205Z,83.26
2018-09-28T20:22:53.066Z,83.65
2018-09-28T20:24:45.732Z,83.45
2018-09-28T20:25:45.619Z,83.55
2018-09-28T20:27:38.305Z,83.74
2018-09-28T20:28:38.181Z,83.17
2018-09-28T20:30:30.839Z,83.17
2018-09-28T20:31:30.732Z,83.26
2018-09-28T20:33:23.410Z,82.79
2018-09-28T20:34:23.288Z,82.79
2018-09-28T20:36:15.970Z,82.79
2018-09-28T20:37:15.834Z,82.89
2018-09-28T20:39:08.509Z,82.21
2018-09-28T20:40:08.459Z,82.12
2018-09-28T20:42:01.583Z,81.84
2018-09-28T20:43:01.450Z,81.84
2018-09-28T20:44:54.611Z,81.74
2018-09-28T20:45:54.504Z,81.65
2018-09-28T20:47:47.183Z,81.36
2018-09-28T20:48:47.083Z,81.93
2018-09-28T20:50:39.713Z,81.70
2018-09-28T20:51:39.609Z,81.89
2018-09-28T20:53:32.296Z,81.98
2018-09-28T20:54:32.169Z,82.03
2018-09-28T20:56:24.844Z,82.08
2018-09-28T20:57:24.724Z,81.98
2018-09-28T20:59:17.416Z,82.18
2018-09-28T21:00:17.290Z,82.56
2018-09-28T21:02:09.986Z,83.41
2018-09-28T21:03:09.855Z,83.22
2018-09-28T21:05:02.517Z,83.61
2018-09-28T21:06:02.403Z,83.89
2018-09-28T21:07:55.097Z,83.98
2018-09-28T21:08:54.967Z,84.27
2018-09-28T21:10:47.834Z,84.46
2018-09-28T21:11:47.610Z,84.17
2018-09-28T21:13:40.323Z,84.65
2018-09-28T21:14:40.157Z,84.84
2018-09-28T21:16:32.828Z,84.65
2018-09-28T21:17:32.711Z,84.65
2018-09-28T21:19:25.393Z,85.03
2018-09-28T21:20:25.266Z,85.41
2018-09-28T21:22:17.961Z,84.94
2018-09-28T21:23:17.818Z,85.80
2018-09-28T21:25:10.486Z,85.80
2018-09-28T21:26:10.372Z,85.80
2018-09-28T21:28:03.055Z,85.28
2018-09-28T21:29:02.944Z,85.85
2018-09-28T21:30:55.595Z,85.94
2018-09-28T21:31:55.481Z,86.13
2018-09-28T21:33:48.162Z,86.61
2018-09-28T21:34:48.033Z,86.61
2018-09-28T21:36:41.206Z,86.61
2018-09-28T21:37:40.786Z,86.70
2018-09-28T21:39:33.468Z,86.70
2018-09-28T21:40:33.340Z,86.70
2018-09-28T21:42:26.028Z,86.90
2018-09-28T21:43:25.896Z,87.18
2018-09-28T21:45:18.559Z,87.75
2018-09-28T21:46:18.452Z,87.85
2018-09-28T21:48:11.139Z,87.65
2018-09-28T21:49:11.002Z,87.46
2018-09-28T21:51:03.675Z,87.46
2018-09-28T21:52:03.699Z,87.75
2018-09-28T21:53:56.247Z,87.37
2018-09-28T21:54:56.121Z,87.37
2018-09-28T21:56:48.852Z,87.08
2018-09-28T21:57:48.741Z,86.85
2018-09-28T21:59:41.420Z,87.65
